Time,TemperatureF,DewpointF,PressureIn,WindDirection,WindDirectionDegrees,WindSpeedMPH,WindSpeedGustMPH,Humidity,HourlyPrecipIn,Conditions,Clouds,dailyrainin,SoftwareType,DateUTC
2013-05-27 00:06:00,65.9,11.8,29.84,NE,42,5.0,7.0,12,0.00,,,0.00,Wunderground v.1.15,2013-05-27 07:06:00,
2013-05-27 00:11:00,64.7,12.7,29.84,NE,49,6.0,7.0,13,0.00,,,0.00,Wunderground v.1.15,2013-05-27 07:11:00,
2013-05-27 00:16:00,63.3,13.2,29.84,ENE,76,4.0,4.0,14,0.00,,,0.00,Wunderground v.1.15,2013-05-27 07:16:00,
2013-05-27 00:26:00,62.3,12.4,29.84,ENE,65,1.0,1.0,14,0.00,,,0.00,Wunderground v.1.15,2013-05-27 07:26:00,
2013-05-27 00:36:00,62.5,12.6,29.84,ENE,61,1.0,3.0,14,0.00,,,0.00,Wunderground v.1.15,2013-05-27 07:36:00,
2013-05-27 00:46:00,61.7,10.3,29.84,East,86,0.0,3.0,13,0.00,,,0.00,Wunderground v.1.15,2013-05-27 07:46:00,
2013-05-27 00:56:00,60.9,9.6,29.84,East,86,1.0,1.0,13,0.00,,,0.00,Wunderground v.1.15,2013-05-27 07:56:00,
2013-05-27 01:06:00,61.7,10.3,29.84,East,95,0.0,0.0,13,0.00,,,0.00,Wunderground v.1.15,2013-05-27 08:06:00,
2013-05-27 01:16:00,62.3,9.0,29.84,South,173,1.0,1.0,12,0.00,,,0.00,Wunderground v.1.15,2013-05-27 08:16:00,
2013-05-27 01:26:00,59.2,9.9,29.84,South,173,0.0,0.0,14,0.00,,,0.00,Wunderground v.1.15,2013-05-27 08:26:00,
2013-05-27 01:31:00,59.0,9.8,29.84,South,173,0.0,0.0,14,0.00,,,0.00,Wunderground v.1.15,2013-05-27 08:31:00,
2013-05-27 01:41:00,58.5,9.4,29.84,South,173,0.0,0.0,14,0.00,,,0.00,Wunderground v.1.15,2013-05-27 08:41:00,
2013-05-27 01:51:00,58.0,9.0,29.84,South,173,0.0,0.0,14,0.00,,,0.00,Wunderground v.1.15,2013-05-27 08:51:00,
2013-05-27 01:56:00,58.6,9.5,29.84,SE,125,0.0,0.0,14,0.00,,,0.00,Wunderground v.1.15,2013-05-27 08:56:00,
2013-05-27 02:06:00,59.1,11.4,29.84,NE,47,2.0,2.0,15,0.00,,,0.00,Wunderground v.1.15,2013-05-27 09:06:00,
2013-05-27 02:16:00,59.0,12.8,29.84,NE,47,0.0,7.0,16,0.00,,,0.00,Wunderground v.1.15,2013-05-27 09:16:00,
2013-05-27 02:26:00,58.2,10.7,29.84,NE,47,0.0,7.0,15,0.00,,,0.00,Wunderground v.1.15,2013-05-27 09:26:00,
2013-05-27 02:36:00,56.6,10.9,29.84,ESE,117,0.0,7.0,16,0.00,,,0.00,Wunderground v.1.15,2013-05-27 09:36:00,
2013-05-27 02:46:00,57.3,10.0,29.84,ESE,117,0.0,7.0,15,0.00,,,0.00,Wunderground v.1.15,2013-05-27 09:46:00,
2013-05-27 02:51:00,56.7,9.5,29.84,ESE,117,0.0,7.0,15,0.00,,,0.00,Wunderground v.1.15,2013-05-27 09:51:00,
2013-05-27 03:06:00,54.3,10.3,29.84,SSE,150,1.0,1.0,17,0.00,,,0.00,Wunderground v.1.15,2013-05-27 10:06:00,
2013-05-27 03:16:00,53.3,9.5,29.84,SSE,153,1.0,1.0,17,0.00,,,0.00,Wunderground v.1.15,2013-05-27 10:16:00,
2013-05-27 03:21:00,53.0,10.6,29.84,South,182,2.0,4.0,18,0.00,,,0.00,Wunderground v.1.15,2013-05-27 10:21:00,
2013-05-27 03:31:00,53.6,11.0,29.84,South,182,1.0,2.0,18,0.00,,,0.00,Wunderground v.1.15,2013-05-27 10:31:00,
2013-05-27 03:36:00,54.1,11.5,29.84,South,182,1.0,1.0,18,0.00,,,0.00,Wunderground v.1.15,2013-05-27 10:36:00,
2013-05-27 03:46:00,53.5,11.0,29.84,South,182,0.0,2.0,18,0.00,,,0.00,Wunderground v.1.15,2013-05-27 10:46:00,
2013-05-27 03:51:00,53.1,11.9,29.84,South,182,0.0,2.0,19,0.00,,,0.00,Wunderground v.1.15,2013-05-27 10:51:00,
2013-05-27 03:56:00,53.1,10.6,29.84,South,182,0.0,2.0,18,0.00,,,0.00,Wunderground v.1.15,2013-05-27 10:56:00,
2013-05-27 04:06:00,51.5,11.7,29.84,SSW,198,3.0,5.0,20,0.00,,,0.00,Wunderground v.1.15,2013-05-27 11:06:00,
2013-05-27 04:16:00,52.4,11.3,29.84,SSW,198,2.0,2.0,19,0.00,,,0.00,Wunderground v.1.15,2013-05-27 11:16:00,
2013-05-27 04:21:00,53.0,11.8,29.84,SSW,198,1.0,5.0,19,0.00,,,0.00,Wunderground v.1.15,2013-05-27 11:21:00,
2013-05-27 04:31:00,52.0,12.1,29.84,SSW,198,1.0,5.0,20,0.00,,,0.00,Wunderground v.1.15,2013-05-27 11:31:00,
2013-05-27 04:36:00,51.2,11.4,29.84,SSW,198,2.0,5.0,20,0.00,,,0.00,Wunderground v.1.15,2013-05-27 11:36:00,
2013-05-27 04:46:00,49.8,12.4,29.84,SSW,196,2.0,5.0,22,0.00,,,0.00,Wunderground v.1.15,2013-05-27 11:46:00,
2013-05-27 04:56:00,49.9,12.5,29.84,SSW,196,2.0,5.0,22,0.00,,,0.00,Wunderground v.1.15,2013-05-27 11:56:00,
2013-05-27 05:06:00,50.1,12.7,29.84,SSW,196,2.0,2.0,22,0.00,,,0.00,Wunderground v.1.15,2013-05-27 12:06:00,
2013-05-27 05:11:00,50.3,12.8,29.84,SSW,194,2.0,3.0,22,0.00,,,0.00,Wunderground v.1.15,2013-05-27 12:11:00,
2013-05-27 05:21:00,50.5,13.0,29.84,SSW,194,3.0,4.0,22,0.00,,,0.00,Wunderground v.1.15,2013-05-27 12:21:00,
2013-05-27 05:26:00,50.9,13.3,29.84,SSW,194,3.0,4.0,22,0.00,,,0.00,Wunderground v.1.15,2013-05-27 12:26:00,
2013-05-27 05:36:00,50.5,14.0,29.84,SSW,194,3.0,3.0,23,0.00,,,0.00,Wunderground v.1.15,2013-05-27 12:36:00,
2013-05-27 05:41:00,50.2,13.8,29.84,SSW,194,2.0,4.0,23,0.00,,,0.00,Wunderground v.1.15,2013-05-27 12:41:00,
2013-05-27 05:51:00,51.1,14.5,29.84,SSW,195,3.0,4.0,23,0.00,,,0.00,Wunderground v.1.15,2013-05-27 12:51:00,
2013-05-27 06:06:00,52.3,14.5,29.84,South,182,3.0,3.0,22,0.00,,,0.00,Wunderground v.1.15,2013-05-27 13:06:00,
2013-05-27 06:16:00,54.9,15.6,29.84,South,182,1.0,1.0,21,0.00,,,0.00,Wunderground v.1.15,2013-05-27 13:16:00,
2013-05-27 06:21:00,56.3,15.7,29.84,South,182,0.0,5.0,20,0.00,,,0.00,Wunderground v.1.15,2013-05-27 13:21:00,
2013-05-27 06:31:00,58.7,17.7,29.84,South,182,0.0,5.0,20,0.00,,,0.00,Wunderground v.1.15,2013-05-27 13:31:00,
2013-05-27 06:41:00,61.5,16.2,29.84,South,182,0.0,5.0,17,0.00,,,0.00,Wunderground v.1.15,2013-05-27 13:41:00,
2013-05-27 06:51:00,65.1,14.7,29.84,South,182,0.0,5.0,14,0.00,,,0.00,Wunderground v.1.15,2013-05-27 13:51:00,
2013-05-27 07:06:00,69.0,14.2,29.84,South,182,0.0,0.0,12,0.00,,,0.00,Wunderground v.1.15,2013-05-27 14:06:00,
2013-05-27 07:16:00,69.7,16.6,29.84,SE,146,0.0,0.0,13,0.00,,,0.00,Wunderground v.1.15,2013-05-27 14:16:00,
2013-05-27 07:26:00,70.1,18.6,29.84,ESE,116,0.0,0.0,14,0.00,,,0.00,Wunderground v.1.15,2013-05-27 14:26:00,
2013-05-27 07:31:00,70.4,11.2,29.84,ESE,116,0.0,0.0,10,0.00,,,0.00,Wunderground v.1.15,2013-05-27 14:31:00,
2013-05-27 07:41:00,71.1,11.7,29.84,ESE,107,0.0,1.0,10,0.00,,,0.00,Wunderground v.1.15,2013-05-27 14:41:00,
2013-05-27 07:52:00,71.9,12.3,29.84,ESE,107,0.0,0.0,10,0.00,,,0.00,Wunderground v.1.15,2013-05-27 14:52:00,
2013-05-27 08:06:00,72.1,21.9,29.84,NE,44,3.0,4.0,15,0.00,,,0.00,Wunderground v.1.15,2013-05-27 15:06:00,
2013-05-27 08:16:00,72.8,17.2,29.84,NE,38,4.0,4.0,12,0.00,,,0.00,Wunderground v.1.15,2013-05-27 15:16:00,
2013-05-27 08:21:00,73.1,17.4,29.84,NE,38,2.0,4.0,12,0.00,,,0.00,Wunderground v.1.15,2013-05-27 15:21:00,
2013-05-27 08:31:00,73.9,16.0,29.84,NE,35,2.0,4.0,11,0.00,,,0.00,Wunderground v.1.15,2013-05-27 15:31:00,
2013-05-27 08:36:00,74.0,18.1,29.84,NNE,25,3.0,4.0,12,0.00,,,0.00,Wunderground v.1.15,2013-05-27 15:36:00,
2013-05-27 08:46:00,74.2,14.1,29.84,NNE,16,3.0,4.0,10,0.00,,,0.00,Wunderground v.1.15,2013-05-27 15:46:00,
2013-05-27 08:51:00,74.4,16.4,29.84,NNE,25,4.0,6.0,11,0.00,,,0.00,Wunderground v.1.15,2013-05-27 15:51:00,
2013-05-27 09:06:00,75.3,12.5,29.84,NNE,14,4.0,4.0,9,0.00,,,0.00,Wunderground v.1.15,2013-05-27 16:06:00,
2013-05-27 09:16:00,75.5,15.1,29.84,NNE,16,4.0,7.0,10,0.00,,,0.00,Wunderground v.1.15,2013-05-27 16:16:00,
2013-05-27 09:26:00,75.8,17.5,29.84,North,5,4.0,7.0,11,0.00,,,0.00,Wunderground v.1.15,2013-05-27 16:26:00,
2013-05-27 09:36:00,76.4,15.7,29.84,NNE,18,4.0,7.0,10,0.00,,,0.00,Wunderground v.1.15,2013-05-27 16:36:00,
2013-05-27 09:46:00,77.0,16.2,29.84,North,11,3.0,3.0,10,0.00,,,0.00,Wunderground v.1.15,2013-05-27 16:46:00,
2013-05-27 09:56:00,77.5,16.6,29.84,North,11,4.0,4.0,10,0.00,,,0.00,Wunderground v.1.15,2013-05-27 16:56:00,
2013-05-27 10:06:00,78.2,17.1,29.84,North,351,3.0,3.0,10,0.00,,,0.00,Wunderground v.1.15,2013-05-27 17:06:00,
2013-05-27 10:16:00,78.7,17.5,29.84,NNE,24,2.0,2.0,10,0.00,,,0.00,Wunderground v.1.15,2013-05-27 17:16:00,
2013-05-27 10:21:00,79.2,17.9,29.84,NNW,348,2.0,4.0,10,0.00,,,0.00,Wunderground v.1.15,2013-05-27 17:21:00,
2013-05-27 10:26:00,79.2,17.9,29.84,NNW,341,3.0,3.0,10,0.00,,,0.00,Wunderground v.1.15,2013-05-27 17:26:00,
2013-05-27 10:36:00,80.4,16.4,29.84,North,355,3.0,3.0,9,0.00,,,0.00,Wunderground v.1.15,2013-05-27 17:36:00,
2013-05-27 10:41:00,80.9,16.7,29.84,North,10,3.0,7.0,9,0.00,,,0.00,Wunderground v.1.15,2013-05-27 17:41:00,
2013-05-27 10:51:00,80.8,16.7,29.84,North,360,2.0,6.0,9,0.00,,,0.00,Wunderground v.1.15,2013-05-27 17:51:00,
2013-05-27 10:56:00,81.3,17.0,29.84,NNE,13,2.0,2.0,9,0.00,,,0.00,Wunderground v.1.15,2013-05-27 17:56:00,
2013-05-27 11:06:00,81.8,17.4,29.84,NNE,24,5.0,7.0,9,0.00,,,0.00,Wunderground v.1.15,2013-05-27 18:06:00,
2013-05-27 11:16:00,82.2,15.0,29.84,North,355,4.0,4.0,8,0.00,,,0.00,Wunderground v.1.15,2013-05-27 18:16:00,
2013-05-27 11:21:00,82.3,17.8,29.84,NNE,30,3.0,14.0,9,0.00,,,0.00,Wunderground v.1.15,2013-05-27 18:21:00,
2013-05-27 11:31:00,82.7,15.4,29.84,NNE,23,7.0,10.0,8,0.00,,,0.00,Wunderground v.1.15,2013-05-27 18:31:00,
2013-05-27 11:36:00,83.1,15.7,29.84,NNE,22,6.0,8.0,8,0.00,,,0.00,Wunderground v.1.15,2013-05-27 18:36:00,
2013-05-27 11:46:00,83.9,13.2,29.84,NNE,13,6.0,6.0,7,0.00,,,0.00,Wunderground v.1.15,2013-05-27 18:46:00,
2013-05-27 11:56:00,83.2,15.7,29.84,NNE,17,4.0,4.0,8,0.00,,,0.00,Wunderground v.1.15,2013-05-27 18:56:00,
2013-05-27 12:06:00,84.8,13.9,29.84,NNW,337,4.0,4.0,7,0.00,,,0.00,Wunderground v.1.15,2013-05-27 19:06:00,
2013-05-27 12:16:00,85.2,14.1,29.84,NNE,32,3.0,3.0,7,0.00,,,0.00,Wunderground v.1.15,2013-05-27 19:16:00,
2013-05-27 12:21:00,85.4,17.4,29.84,NNW,348,3.0,9.0,8,0.00,,,0.00,Wunderground v.1.15,2013-05-27 19:21:00,
2013-05-27 12:31:00,84.6,16.8,29.84,NNW,330,4.0,4.0,8,0.00,,,0.00,Wunderground v.1.15,2013-05-27 19:31:00,
2013-05-27 12:36:00,85.5,14.4,29.84,NNE,16,4.0,11.0,7,0.00,,,0.00,Wunderground v.1.15,2013-05-27 19:36:00,
2013-05-27 12:46:00,84.8,16.9,29.84,North,5,3.0,11.0,8,0.00,,,0.00,Wunderground v.1.15,2013-05-27 19:46:00,
2013-05-27 12:56:00,85.7,14.5,29.84,NNE,13,5.0,5.0,7,0.00,,,0.00,Wunderground v.1.15,2013-05-27 19:56:00,
2013-05-27 13:06:00,85.4,14.3,29.84,NNE,25,1.0,1.0,7,0.00,,,0.00,Wunderground v.1.15,2013-05-27 20:06:00,
2013-05-27 13:16:00,86.9,15.4,29.84,NNW,343,4.0,4.0,7,0.00,,,0.00,Wunderground v.1.15,2013-05-27 20:16:00,
2013-05-27 13:26:00,87.3,12.2,29.84,NNW,346,2.0,10.0,6,0.00,,,0.00,Wunderground v.1.15,2013-05-27 20:26:00,
2013-05-27 13:31:00,87.2,12.1,29.84,North,350,3.0,10.0,6,0.00,,,0.00,Wunderground v.1.15,2013-05-27 20:31:00,
2013-05-27 13:41:00,87.6,12.4,29.84,NW,308,2.0,10.0,6,0.00,,,0.00,Wunderground v.1.15,2013-05-27 20:41:00,
2013-05-27 13:46:00,88.2,12.8,29.84,NNE,22,1.0,10.0,6,0.00,,,0.00,Wunderground v.1.15,2013-05-27 20:46:00,
2013-05-27 13:56:00,87.8,12.5,29.84,ENE,71,2.0,10.0,6,0.00,,,0.00,Wunderground v.1.15,2013-05-27 20:56:00,
2013-05-27 14:06:00,88.1,8.6,29.84,SW,228,1.0,5.0,5,0.00,,,0.00,Wunderground v.1.15,2013-05-27 21:06:00,
2013-05-27 14:16:00,87.7,8.4,29.84,SW,231,2.0,5.0,5,0.00,,,0.00,Wunderground v.1.15,2013-05-27 21:16:00,
2013-05-27 14:26:00,87.6,8.3,29.84,WSW,255,2.0,5.0,5,0.00,,,0.00,Wunderground v.1.15,2013-05-27 21:26:00,
2013-05-27 14:31:00,87.7,12.5,29.84,WNW,289,3.0,5.0,6,0.00,,,0.00,Wunderground v.1.15,2013-05-27 21:31:00,
2013-05-27 14:41:00,88.0,8.6,29.84,SW,234,2.0,6.0,5,0.00,,,0.00,Wunderground v.1.15,2013-05-27 21:41:00,
2013-05-27 14:51:00,89.3,9.5,29.84,West,267,3.0,5.0,5,0.00,,,0.00,Wunderground v.1.15,2013-05-27 21:51:00,
2013-05-27 15:06:00,91.5,11.0,29.84,ESE,123,4.0,16.0,5,0.00,,,0.00,Wunderground v.1.15,2013-05-27 22:06:00,
2013-05-27 15:16:00,90.4,10.3,29.84,SW,215,7.0,7.0,5,0.00,,,0.00,Wunderground v.1.15,2013-05-27 22:16:00,
2013-05-27 15:26:00,91.7,6.2,29.84,SSW,206,5.0,16.0,4,0.00,,,0.00,Wunderground v.1.15,2013-05-27 22:26:00,
2013-05-27 15:36:00,91.2,10.8,29.84,SSE,152,5.0,16.0,5,0.00,,,0.00,Wunderground v.1.15,2013-05-27 22:36:00,
2013-05-27 15:41:00,91.3,5.9,29.84,West,261,3.0,16.0,4,0.00,,,0.00,Wunderground v.1.15,2013-05-27 22:41:00,
2013-05-27 15:51:00,91.3,10.9,29.84,SSE,152,5.0,16.0,5,0.00,,,0.00,Wunderground v.1.15,2013-05-27 22:51:00,
2013-05-27 16:06:00,90.8,10.5,29.84,SSW,198,11.0,11.0,5,0.00,,,0.00,Wunderground v.1.15,2013-05-27 23:06:00,
2013-05-27 16:16:00,90.6,5.5,29.84,SSW,195,11.0,15.0,4,0.00,,,0.00,Wunderground v.1.15,2013-05-27 23:16:00,
2013-05-27 16:26:00,90.2,5.2,29.84,SW,227,9.0,9.0,4,0.00,,,0.00,Wunderground v.1.15,2013-05-27 23:26:00,
2013-05-27 16:31:00,90.5,-0.8,29.84,SW,220,10.0,10.0,3,0.00,,,0.00,Wunderground v.1.15,2013-05-27 23:31:00,
2013-05-27 16:41:00,90.7,-0.7,29.84,SSW,201,12.0,16.0,3,0.00,,,0.00,Wunderground v.1.15,2013-05-27 23:41:00,
2013-05-27 16:46:00,90.2,-1.0,29.84,South,172,11.0,11.0,3,0.00,,,0.00,Wunderground v.1.15,2013-05-27 23:46:00,
2013-05-27 16:51:00,90.5,-0.8,29.84,SW,225,11.0,13.0,3,0.00,,,0.00,Wunderground v.1.15,2013-05-27 23:51:00,
2013-05-27 17:06:00,89.4,-1.6,29.84,SW,225,11.0,21.0,3,0.00,,,0.00,Wunderground v.1.15,2013-05-28 00:06:00,
2013-05-27 17:16:00,88.5,4.0,29.84,SSW,206,14.0,14.0,4,0.00,,,0.00,Wunderground v.1.15,2013-05-28 00:16:00,
2013-05-27 17:26:00,88.9,4.3,29.84,WSW,244,8.0,21.0,4,0.00,,,0.00,Wunderground v.1.15,2013-05-28 00:26:00,
2013-05-27 17:31:00,88.5,4.0,29.84,WSW,244,9.0,21.0,4,0.00,,,0.00,Wunderground v.1.15,2013-05-28 00:31:00,
2013-05-27 17:41:00,88.1,3.7,29.84,SW,225,10.0,21.0,4,0.00,,,0.00,Wunderground v.1.15,2013-05-28 00:41:00,
2013-05-27 17:51:00,87.6,3.4,29.84,WSW,249,10.0,12.0,4,0.00,,,0.00,Wunderground v.1.15,2013-05-28 00:51:00,
2013-05-27 18:06:00,86.9,-3.2,29.84,SSW,213,12.0,17.0,3,0.00,,,0.00,Wunderground v.1.15,2013-05-28 01:06:00,
2013-05-27 18:16:00,86.1,-3.8,29.84,WSW,248,13.0,13.0,3,0.00,,,0.00,Wunderground v.1.15,2013-05-28 01:16:00,
2013-05-27 18:26:00,85.4,-4.2,29.84,WSW,240,12.0,12.0,3,0.00,,,0.00,Wunderground v.1.15,2013-05-28 01:26:00,
2013-05-27 18:31:00,85.2,-4.4,29.84,SW,233,11.0,17.0,3,0.00,,,0.00,Wunderground v.1.15,2013-05-28 01:31:00,
2013-05-27 18:41:00,84.3,-5.0,29.84,SW,220,13.0,17.0,3,0.00,,,0.00,Wunderground v.1.15,2013-05-28 01:41:00,
2013-05-27 18:46:00,83.9,-5.2,29.84,SW,230,10.0,10.0,3,0.00,,,0.00,Wunderground v.1.15,2013-05-28 01:46:00,
2013-05-27 18:56:00,82.9,-5.9,29.84,SW,221,8.0,17.0,3,0.00,,,0.00,Wunderground v.1.15,2013-05-28 01:56:00,
2013-05-27 19:06:00,81.6,-6.8,29.84,WSW,248,10.0,10.0,3,0.00,,,0.00,Wunderground v.1.15,2013-05-28 02:06:00,
2013-05-27 19:11:00,80.9,-7.2,29.84,SW,232,9.0,14.0,3,0.00,,,0.00,Wunderground v.1.15,2013-05-28 02:11:00,
2013-05-27 19:21:00,79.9,-7.9,29.84,SW,230,7.0,14.0,3,0.00,,,0.00,Wunderground v.1.15,2013-05-28 02:21:00,
2013-05-27 19:31:00,78.5,-8.9,29.84,SW,225,5.0,14.0,3,0.00,,,0.00,Wunderground v.1.15,2013-05-28 02:31:00,
2013-05-27 19:41:00,78.3,-9.0,29.84,West,265,8.0,14.0,3,0.00,,,0.00,Wunderground v.1.15,2013-05-28 02:41:00,
2013-05-27 19:46:00,78.4,-8.9,29.84,SW,233,8.0,8.0,3,0.00,,,0.00,Wunderground v.1.15,2013-05-28 02:46:00,
2013-05-27 19:56:00,77.9,-9.3,29.84,SW,225,7.0,14.0,3,0.00,,,0.00,Wunderground v.1.15,2013-05-28 02:56:00,
2013-05-27 20:06:00,77.6,-9.5,29.84,SW,232,8.0,8.0,3,0.00,,,0.00,Wunderground v.1.15,2013-05-28 03:06:00,
2013-05-27 20:16:00,77.3,-9.7,29.84,SW,236,7.0,7.0,3,0.00,,,0.00,Wunderground v.1.15,2013-05-28 03:16:00,
2013-05-27 20:21:00,77.2,-9.7,29.84,WSW,238,6.0,14.0,3,0.00,,,0.00,Wunderground v.1.15,2013-05-28 03:21:00,
2013-05-27 20:31:00,76.6,-10.1,29.84,WSW,247,5.0,14.0,3,0.00,,,0.00,Wunderground v.1.15,2013-05-28 03:31:00,
2013-05-27 20:36:00,76.3,-10.3,29.84,WSW,244,4.0,4.0,3,0.00,,,0.00,Wunderground v.1.15,2013-05-28 03:36:00,
2013-05-27 20:46:00,75.7,-4.8,29.84,WSW,240,4.0,4.0,4,0.00,,,0.00,Wunderground v.1.15,2013-05-28 03:46:00,
2013-05-27 20:56:00,75.8,-10.7,29.84,WSW,243,4.0,14.0,3,0.00,,,0.00,Wunderground v.1.15,2013-05-28 03:56:00,
2013-05-27 21:06:00,75.5,-10.9,29.84,WSW,246,4.0,7.0,3,0.00,,,0.00,Wunderground v.1.15,2013-05-28 04:06:00,
2013-05-27 21:11:00,75.1,-11.1,29.84,WSW,242,4.0,7.0,3,0.00,,,0.00,Wunderground v.1.15,2013-05-28 04:11:00,
2013-05-27 21:21:00,74.5,-5.7,29.84,WSW,244,5.0,7.0,4,0.00,,,0.00,Wunderground v.1.15,2013-05-28 04:21:00,
2013-05-27 21:26:00,74.3,-5.8,29.84,SW,229,5.0,7.0,4,0.00,,,0.00,Wunderground v.1.15,2013-05-28 04:26:00,
2013-05-27 21:36:00,74.4,-5.7,29.84,WSW,240,6.0,7.0,4,0.00,,,0.00,Wunderground v.1.15,2013-05-28 04:36:00,
2013-05-27 21:46:00,74.3,-5.8,29.84,WSW,240,6.0,6.0,4,0.00,,,0.00,Wunderground v.1.15,2013-05-28 04:46:00,
2013-05-27 21:51:00,74.2,-5.9,29.84,WSW,240,6.0,8.0,4,0.00,,,0.00,Wunderground v.1.15,2013-05-28 04:51:00,
2013-05-27 22:06:00,74.0,-1.3,29.84,SW,236,7.0,11.0,5,0.00,,,0.00,Wunderground v.1.15,2013-05-28 05:06:00,
2013-05-27 22:16:00,72.0,1.1,29.84,SW,232,6.0,11.0,6,0.00,,,0.00,Wunderground v.1.15,2013-05-28 05:16:00,
2013-05-27 22:21:00,70.8,0.2,29.84,SW,233,7.0,11.0,6,0.00,,,0.00,Wunderground v.1.15,2013-05-28 05:21:00,
2013-05-27 22:31:00,70.1,3.1,29.84,SW,223,9.0,11.0,7,0.00,,,0.00,Wunderground v.1.15,2013-05-28 05:31:00,
2013-05-27 22:41:00,71.0,3.7,29.84,SW,218,9.0,11.0,7,0.00,,,0.00,Wunderground v.1.15,2013-05-28 05:41:00,
2013-05-27 22:46:00,70.8,3.6,29.84,SW,214,8.0,11.0,7,0.00,,,0.00,Wunderground v.1.15,2013-05-28 05:46:00,
2013-05-27 22:56:00,70.5,6.3,29.84,SSW,213,8.0,8.0,8,0.00,,,0.00,Wunderground v.1.15,2013-05-28 05:56:00,
2013-05-27 23:06:00,70.2,8.6,29.84,SW,218,9.0,10.0,9,0.00,,,0.00,Wunderground v.1.15,2013-05-28 06:06:00,
2013-05-27 23:16:00,70.5,11.2,29.84,SW,222,9.0,10.0,10,0.00,,,0.00,Wunderground v.1.15,2013-05-28 06:16:00,
2013-05-27 23:26:00,69.3,12.5,29.84,SW,231,8.0,8.0,11,0.00,,,0.00,Wunderground v.1.15,2013-05-28 06:26:00,
2013-05-27 23:31:00,68.6,11.9,29.84,SW,223,7.0,10.0,11,0.00,,,0.00,Wunderground v.1.15,2013-05-28 06:31:00,
2013-05-27 23:41:00,69.0,14.2,29.84,SW,222,10.0,10.0,12,0.00,,,0.00,Wunderground v.1.15,2013-05-28 06:41:00,
2013-05-27 23:51:00,68.5,13.8,29.84,SW,219,11.0,13.0,12,0.00,,,0.00,Wunderground v.1.15,2013-05-28 06:51:00,